createdAt,value
2017-07-26T00:00:14.600Z,70.20
2017-07-26T00:02:42.125Z,70.00
2017-07-26T00:05:09.701Z,70.20
2017-07-26T00:07:37.246Z,70.00
2017-07-26T00:10:04.782Z,70.50
2017-07-26T00:12:32.317Z,70.10
2017-07-26T00:14:59.836Z,70.30
2017-07-26T00:17:27.370Z,70.00
2017-07-26T00:19:54.946Z,70.00
2017-07-26T00:22:22.486Z,70.10
2017-07-26T00:24:50.010Z,69.40
2017-07-26T00:27:17.565Z,70.20
2017-07-26T00:29:45.070Z,69.90
2017-07-26T00:32:12.642Z,70.20
2017-07-26T00:34:40.154Z,70.20
2017-07-26T00:37:08.486Z,68.90
2017-07-26T00:39:36.034Z,69.00
2017-07-26T00:42:03.559Z,70.10
2017-07-26T00:44:31.838Z,70.60
2017-07-26T00:47:00.149Z,70.40
2017-07-26T00:49:27.682Z,70.40
2017-07-26T00:51:55.229Z,71.00
2017-07-26T00:54:23.557Z,71.20
2017-07-26T00:56:51.125Z,71.00
2017-07-26T00:59:18.643Z,71.30
2017-07-26T01:01:46.206Z,71.10
2017-07-26T01:04:13.728Z,71.40
2017-07-26T01:06:41.255Z,71.20
2017-07-26T01:09:08.791Z,71.60
2017-07-26T01:11:36.313Z,71.80
2017-07-26T01:14:03.838Z,71.80
2017-07-26T01:16:31.422Z,71.00
2017-07-26T01:18:58.945Z,70.90
2017-07-26T01:21:26.493Z,70.50
2017-07-26T01:23:54.041Z,70.40
2017-07-26T01:26:21.587Z,70.70
2017-07-26T01:28:49.117Z,70.10
2017-07-26T01:31:16.703Z,70.50
2017-07-26T01:33:44.969Z,70.10
2017-07-26T01:36:13.290Z,70.30
2017-07-26T01:38:40.816Z,69.90
2017-07-26T01:41:09.119Z,69.80
2017-07-26T01:43:36.641Z,69.20
2017-07-26T01:46:04.194Z,69.70
2017-07-26T01:48:31.744Z,70.30
2017-07-26T01:50:59.305Z,69.80
2017-07-26T01:53:26.810Z,69.60
2017-07-26T01:55:54.330Z,70.00
2017-07-26T01:58:21.914Z,70.30
2017-07-26T02:00:50.201Z,71.50
2017-07-26T02:03:18.491Z,71.30
2017-07-26T02:05:46.003Z,71.20
2017-07-26T02:08:13.574Z,71.10
2017-07-26T02:10:41.102Z,71.00
2017-07-26T02:13:08.689Z,70.50
2017-07-26T02:15:36.197Z,70.70
2017-07-26T02:18:03.764Z,71.40
2017-07-26T02:20:31.274Z,71.10
2017-07-26T02:22:58.814Z,70.50
2017-07-26T02:25:26.341Z,71.00
2017-07-26T02:27:53.859Z,71.80
2017-07-26T02:30:21.522Z,71.50
2017-07-26T02:32:49.080Z,71.50
2017-07-26T02:35:17.371Z,72.20
2017-07-26T02:37:45.678Z,72.20
2017-07-26T02:40:13.215Z,72.10
2017-07-26T02:42:41.614Z,71.50
2017-07-26T02:45:09.117Z,71.30
2017-07-26T02:47:37.466Z,73.40
2017-07-26T02:50:04.987Z,72.50
2017-07-26T02:52:33.295Z,72.70
2017-07-26T02:55:00.828Z,72.60
2017-07-26T02:57:29.143Z,72.50
2017-07-26T02:59:56.671Z,72.40
2017-07-26T03:02:24.210Z,71.60
2017-07-26T03:04:52.494Z,71.60
2017-07-26T03:07:20.886Z,71.80
2017-07-26T03:09:48.387Z,72.00
2017-07-26T03:12:15.959Z,71.30
2017-07-26T03:14:43.484Z,71.30
2017-07-26T03:17:11.035Z,71.10
2017-07-26T03:19:38.562Z,71.50
2017-07-26T03:22:06.847Z,71.80
2017-07-26T03:24:35.117Z,70.80
2017-07-26T03:27:03.429Z,70.50
2017-07-26T03:29:30.949Z,70.80
2017-07-26T03:31:58.506Z,71.30
2017-07-26T03:34:26.018Z,71.00
2017-07-26T03:36:53.573Z,71.00
2017-07-26T03:39:21.110Z,71.00
2017-07-26T03:41:48.654Z,71.50
2017-07-26T03:44:16.993Z,70.90
2017-07-26T03:46:44.505Z,70.80
2017-07-26T03:49:12.789Z,71.80
2017-07-26T03:51:40.314Z,70.80
2017-07-26T03:54:07.903Z,70.60
2017-07-26T03:56:35.426Z,70.60
2017-07-26T03:59:02.999Z,71.00
2017-07-26T04:01:31.341Z,71.20
2017-07-26T04:03:58.871Z,71.10
2017-07-26T04:06:26.430Z,70.80
2017-07-26T04:08:53.962Z,70.70
2017-07-26T04:11:22.307Z,71.90
2017-07-26T04:13:49.828Z,70.90
2017-07-26T04:16:17.331Z,70.80
2017-07-26T04:18:44.898Z,70.40
2017-07-26T04:21:12.411Z,70.50
2017-07-26T04:23:39.969Z,70.10
2017-07-26T04:26:07.516Z,70.10
2017-07-26T04:28:35.836Z,70.40
2017-07-26T04:31:03.384Z,70.40
2017-07-26T04:33:30.953Z,70.20
2017-07-26T04:35:58.468Z,70.10
2017-07-26T04:38:26.787Z,70.00
2017-07-26T04:40:54.314Z,70.00
2017-07-26T04:43:21.854Z,70.30
2017-07-26T04:45:50.152Z,70.00
2017-07-26T04:48:17.676Z,69.90
2017-07-26T04:50:45.194Z,70.00
2017-07-26T04:53:12.743Z,70.00
2017-07-26T04:55:40.258Z,69.90
2017-07-26T04:58:07.822Z,70.00
2017-07-26T05:00:35.326Z,69.90
2017-07-26T05:03:02.876Z,70.30
2017-07-26T05:05:30.382Z,70.30
2017-07-26T05:07:58.783Z,70.20
2017-07-26T05:10:27.066Z,70.90
2017-07-26T05:12:55.384Z,70.10
2017-07-26T05:15:22.898Z,70.10
2017-07-26T05:17:51.190Z,69.90
2017-07-26T05:20:19.510Z,70.10
2017-07-26T05:22:47.082Z,70.00
2017-07-26T05:25:14.640Z,70.40
2017-07-26T05:27:42.184Z,70.30
2017-07-26T05:30:09.746Z,69.90
2017-07-26T05:32:37.334Z,69.70
2017-07-26T05:35:04.931Z,69.50
2017-07-26T05:37:33.224Z,69.40
2017-07-26T05:40:00.770Z,69.30
2017-07-26T05:42:28.334Z,69.70
2017-07-26T05:44:55.873Z,69.70
2017-07-26T05:47:23.393Z,69.90
2017-07-26T05:49:50.921Z,70.00
2017-07-26T05:52:18.631Z,69.60
2017-07-26T05:54:46.199Z,69.40
2017-07-26T05:57:13.715Z,69.10
2017-07-26T05:59:41.278Z,69.80
2017-07-26T06:02:08.822Z,69.70
2017-07-26T06:04:36.390Z,69.60
2017-07-26T06:07:03.945Z,69.30
2017-07-26T06:09:31.477Z,69.70
2017-07-26T06:11:59.007Z,69.80
2017-07-26T06:14:26.578Z,69.10
2017-07-26T06:16:54.109Z,70.10
2017-07-26T06:19:21.658Z,70.00
2017-07-26T06:21:49.202Z,69.80
2017-07-26T06:24:16.733Z,69.90
2017-07-26T06:26:45.018Z,69.40
2017-07-26T06:29:13.343Z,68.30
2017-07-26T06:31:40.902Z,68.30
2017-07-26T06:34:08.472Z,69.20
2017-07-26T06:36:35.997Z,68.70
2017-07-26T06:39:03.568Z,68.50
2017-07-26T06:41:31.124Z,68.10
2017-07-26T06:43:58.658Z,67.70
2017-07-26T06:46:26.184Z,66.70
2017-07-26T06:48:53.706Z,67.30
2017-07-26T06:51:21.232Z,66.50
2017-07-26T06:53:48.795Z,66.80
2017-07-26T06:56:17.114Z,66.20
2017-07-26T06:58:44.644Z,66.20
2017-07-26T07:01:12.184Z,66.00
2017-07-26T07:03:39.695Z,66.20
2017-07-26T07:06:07.288Z,66.40
2017-07-26T07:08:34.846Z,66.20
2017-07-26T07:11:02.409Z,65.80
2017-07-26T07:13:29.937Z,66.30
2017-07-26T07:15:57.527Z,65.80
2017-07-26T07:18:25.851Z,65.70
2017-07-26T07:20:53.390Z,65.60
2017-07-26T07:23:21.699Z,66.10
2017-07-26T07:25:49.238Z,66.00
2017-07-26T07:28:16.762Z,66.20
2017-07-26T07:30:45.116Z,66.10
2017-07-26T07:33:12.644Z,66.00
2017-07-26T07:35:40.230Z,65.50
2017-07-26T07:38:07.765Z,62.90
2017-07-26T07:40:35.297Z,60.80
2017-07-26T07:43:03.579Z,58.90
2017-07-26T07:45:31.914Z,60.00
2017-07-26T07:47:59.424Z,60.00
2017-07-26T07:50:27.007Z,59.10
2017-07-26T07:52:54.545Z,60.30
2017-07-26T07:55:22.101Z,59.30
2017-07-26T07:57:49.636Z,56.50
2017-07-26T08:00:17.190Z,57.00
2017-07-26T08:02:44.727Z,58.50
2017-07-26T08:05:12.317Z,58.60
2017-07-26T08:07:39.841Z,60.10
2017-07-26T08:10:07.466Z,58.30
2017-07-26T08:12:34.970Z,55.80
2017-07-26T08:15:02.560Z,53.40
2017-07-26T08:17:30.158Z,50.30
2017-07-26T08:19:57.688Z,51.90
2017-07-26T08:22:25.206Z,51.80
2017-07-26T08:24:52.741Z,55.00
2017-07-26T08:27:20.267Z,56.00
2017-07-26T08:29:48.635Z,57.40
2017-07-26T08:32:16.922Z,55.10
2017-07-26T08:34:44.478Z,55.10
2017-07-26T08:37:12.807Z,54.70
2017-07-26T08:39:40.369Z,54.20
2017-07-26T08:42:07.990Z,51.70
2017-07-26T08:44:35.555Z,50.00
2017-07-26T08:47:03.883Z,51.60
2017-07-26T08:49:31.397Z,51.60
2017-07-26T08:51:58.957Z,53.10
2017-07-26T08:54:26.506Z,53.20
2017-07-26T08:56:54.081Z,52.30
2017-07-26T08:59:21.615Z,52.60
2017-07-26T09:01:49.230Z,52.60
2017-07-26T09:04:16.799Z,51.40
2017-07-26T09:06:44.354Z,51.20
2017-07-26T09:09:11.882Z,50.40
2017-07-26T09:11:39.462Z,49.20
2017-07-26T09:14:06.994Z,50.70
2017-07-26T09:16:34.579Z,51.20
2017-07-26T09:19:02.088Z,51.20
2017-07-26T09:21:29.648Z,50.60
2017-07-26T09:23:57.162Z,52.10
2017-07-26T09:26:24.761Z,52.30
2017-07-26T09:28:52.284Z,54.10
2017-07-26T09:31:19.847Z,53.10
2017-07-26T09:33:47.387Z,53.80
2017-07-26T09:36:14.948Z,53.90
2017-07-26T09:38:42.470Z,51.00
2017-07-26T09:41:09.993Z,49.40
2017-07-26T09:43:37.555Z,49.10
2017-07-26T09:46:05.127Z,50.40
2017-07-26T09:48:32.711Z,48.50
2017-07-26T09:51:00.242Z,50.40
2017-07-26T09:53:27.798Z,48.70
2017-07-26T09:55:55.324Z,49.80
2017-07-26T09:58:22.852Z,48.10
2017-07-26T10:00:50.374Z,49.00
2017-07-26T10:03:17.907Z,49.40
2017-07-26T10:05:45.466Z,45.60
2017-07-26T10:08:13.000Z,49.20
2017-07-26T10:10:40.536Z,47.60
2017-07-26T10:13:08.090Z,47.50
2017-07-26T10:15:35.636Z,47.00
2017-07-26T10:18:03.194Z,48.00
2017-07-26T10:20:30.777Z,46.20
2017-07-26T10:22:58.318Z,44.90
2017-07-26T10:25:25.858Z,46.40
2017-07-26T10:27:53.435Z,44.70
2017-07-26T10:30:21.015Z,41.50
2017-07-26T10:32:48.697Z,44.20
2017-07-26T10:35:16.252Z,42.40
2017-07-26T10:37:43.780Z,42.10
2017-07-26T10:40:11.329Z,42.20
2017-07-26T10:42:38.885Z,42.20
2017-07-26T10:45:06.401Z,41.10
2017-07-26T10:47:34.710Z,41.90
2017-07-26T10:50:02.269Z,41.50
2017-07-26T10:52:29.851Z,41.50
2017-07-26T10:54:57.420Z,41.40
2017-07-26T10:57:24.950Z,39.40
2017-07-26T10:59:52.478Z,39.40
2017-07-26T11:02:20.801Z,37.90
2017-07-26T11:04:48.426Z,37.80
2017-07-26T11:07:16.758Z,38.40
2017-07-26T11:09:44.261Z,38.40
2017-07-26T11:12:12.541Z,40.00
2017-07-26T11:14:40.132Z,39.90
2017-07-26T11:17:07.690Z,39.00
2017-07-26T11:19:35.211Z,39.20
2017-07-26T11:22:02.771Z,38.90
2017-07-26T11:24:30.345Z,39.20
2017-07-26T11:26:57.890Z,37.00
2017-07-26T11:29:25.437Z,39.20
2017-07-26T11:31:52.959Z,39.30
2017-07-26T11:34:20.524Z,36.30
2017-07-26T11:36:48.179Z,38.10
2017-07-26T11:39:15.691Z,37.50
2017-07-26T11:41:43.247Z,37.00
2017-07-26T11:44:10.796Z,37.40
2017-07-26T11:46:38.449Z,38.20
2017-07-26T11:49:05.999Z,38.50
2017-07-26T11:51:33.562Z,38.50
2017-07-26T11:54:01.114Z,41.10
2017-07-26T11:56:28.667Z,38.10
2017-07-26T11:58:56.243Z,41.20
2017-07-26T12:01:23.802Z,38.50
2017-07-26T12:03:51.369Z,39.90
2017-07-26T12:06:18.898Z,40.30
2017-07-26T12:08:46.437Z,39.90
2017-07-26T12:11:13.988Z,39.90
2017-07-26T12:13:42.370Z,39.70
2017-07-26T12:16:09.907Z,36.60
2017-07-26T12:18:37.437Z,38.90
2017-07-26T12:21:05.013Z,37.90
2017-07-26T12:23:32.559Z,36.20
2017-07-26T12:26:00.074Z,36.70
2017-07-26T12:28:27.622Z,36.60
2017-07-26T12:30:55.144Z,35.90
2017-07-26T12:33:24.446Z,34.50
2017-07-26T12:35:52.002Z,37.80
2017-07-26T12:38:19.665Z,34.80
2017-07-26T12:40:47.182Z,35.50
2017-07-26T12:43:14.726Z,33.60
2017-07-26T12:45:42.251Z,33.90
2017-07-26T12:48:09.815Z,34.30
2017-07-26T12:50:37.339Z,34.80
2017-07-26T12:53:04.873Z,34.90
2017-07-26T12:55:32.420Z,37.20
2017-07-26T12:58:00.018Z,36.60
2017-07-26T13:00:27.526Z,35.60
2017-07-26T13:02:55.045Z,35.90
2017-07-26T13:05:22.608Z,37.00
2017-07-26T13:07:50.132Z,33.70
2017-07-26T13:10:17.631Z,33.70
2017-07-26T13:12:45.154Z,35.00
2017-07-26T13:15:12.706Z,34.20
2017-07-26T13:17:40.281Z,33.20
2017-07-26T13:20:07.835Z,32.10
2017-07-26T13:22:35.390Z,33.30
2017-07-26T13:25:02.903Z,34.80
2017-07-26T13:27:30.423Z,33.50
2017-07-26T13:29:57.950Z,32.60
2017-07-26T13:32:26.292Z,35.70
2017-07-26T13:34:53.818Z,35.10
2017-07-26T13:37:21.355Z,31.20
2017-07-26T13:39:49.718Z,30.90
2017-07-26T13:42:17.223Z,30.80
2017-07-26T13:44:44.754Z,30.00
2017-07-26T13:47:13.055Z,31.20
2017-07-26T13:49:40.655Z,31.20
2017-07-26T13:52:08.221Z,32.50
2017-07-26T13:54:35.750Z,30.50
2017-07-26T13:57:03.287Z,32.80
2017-07-26T13:59:30.870Z,30.60
2017-07-26T14:01:58.407Z,32.40
2017-07-26T14:04:25.959Z,32.00
2017-07-26T14:06:53.483Z,33.60
2017-07-26T14:09:21.052Z,34.00
2017-07-26T14:11:48.572Z,32.30
2017-07-26T14:14:16.224Z,33.20
2017-07-26T14:16:43.730Z,32.50
2017-07-26T14:19:12.033Z,32.00
2017-07-26T14:21:39.583Z,31.90
2017-07-26T14:24:07.863Z,33.10
2017-07-26T14:26:36.167Z,33.90
2017-07-26T14:29:03.669Z,33.90
2017-07-26T14:31:31.251Z,33.50
2017-07-26T14:33:59.544Z,36.10
2017-07-26T14:36:27.136Z,35.90
2017-07-26T14:38:54.658Z,35.40
2017-07-26T14:41:22.218Z,37.60
2017-07-26T14:43:49.790Z,37.90
2017-07-26T14:46:17.337Z,38.20
2017-07-26T14:48:44.907Z,38.20
2017-07-26T14:51:12.462Z,37.50
2017-07-26T14:53:39.978Z,37.40
2017-07-26T14:56:07.516Z,36.90
2017-07-26T14:58:35.023Z,36.50
2017-07-26T15:01:02.614Z,37.80
2017-07-26T15:03:30.135Z,37.10
2017-07-26T15:05:57.658Z,35.30
2017-07-26T15:08:25.166Z,36.60
2017-07-26T15:10:52.753Z,38.00
2017-07-26T15:13:20.317Z,38.40
2017-07-26T15:15:47.859Z,36.30
2017-07-26T15:18:15.394Z,37.60
2017-07-26T15:20:42.939Z,38.60
2017-07-26T15:23:10.460Z,38.90
2017-07-26T15:25:38.017Z,37.60
2017-07-26T15:28:05.551Z,38.00
2017-07-26T15:30:33.857Z,36.70
2017-07-26T15:33:01.478Z,36.70
2017-07-26T15:35:29.031Z,37.00
2017-07-26T15:37:56.554Z,37.00
2017-07-26T15:40:24.120Z,37.90
2017-07-26T15:42:51.683Z,36.30
2017-07-26T15:45:19.245Z,37.80
2017-07-26T15:47:46.834Z,34.90
2017-07-26T15:50:14.339Z,37.10
2017-07-26T15:52:41.858Z,36.40
2017-07-26T15:55:09.373Z,36.20
2017-07-26T15:57:36.944Z,35.70
2017-07-26T16:00:04.466Z,35.50
2017-07-26T16:02:32.014Z,36.70
2017-07-26T16:05:00.289Z,36.00
2017-07-26T16:07:28.582Z,34.50
2017-07-26T16:09:56.118Z,34.50
2017-07-26T16:12:23.709Z,37.30
2017-07-26T16:14:51.218Z,37.30
2017-07-26T16:17:18.758Z,36.30
2017-07-26T16:19:46.289Z,37.10
2017-07-26T16:22:13.853Z,35.90
2017-07-26T16:24:41.392Z,36.30
2017-07-26T16:27:08.978Z,35.10
2017-07-26T16:29:36.489Z,36.80
2017-07-26T16:32:04.018Z,36.50
2017-07-26T16:34:31.543Z,35.10
2017-07-26T16:36:59.065Z,36.10
2017-07-26T16:39:26.566Z,38.40
2017-07-26T16:41:54.083Z,36.30
2017-07-26T16:44:22.402Z,36.90
2017-07-26T16:49:24.562Z,38.70
2017-07-26T16:51:52.874Z,38.10
2017-07-26T16:54:20.459Z,38.10
2017-07-26T16:56:47.995Z,38.00
2017-07-26T16:59:15.520Z,38.50
2017-07-26T17:01:43.867Z,40.40
2017-07-26T17:04:11.462Z,40.30
2017-07-26T17:06:39.753Z,40.70
2017-07-26T17:09:07.294Z,41.30
2017-07-26T17:11:34.833Z,41.10
2017-07-26T17:14:02.364Z,41.50
2017-07-26T17:16:29.919Z,41.90
2017-07-26T17:18:57.422Z,42.00
2017-07-26T17:21:25.736Z,42.00
2017-07-26T17:23:53.261Z,41.90
2017-07-26T17:26:21.597Z,42.60
2017-07-26T17:28:49.135Z,42.60
2017-07-26T17:31:16.674Z,43.00
2017-07-26T17:33:44.208Z,43.10
2017-07-26T17:36:11.729Z,42.00
2017-07-26T17:38:39.554Z,41.80
2017-07-26T17:41:07.178Z,41.60
2017-07-26T17:43:35.505Z,42.40
2017-07-26T17:46:03.062Z,43.00
2017-07-26T17:48:30.628Z,41.50
2017-07-26T17:50:58.147Z,42.40
2017-07-26T17:53:25.686Z,42.60
2017-07-26T17:55:53.210Z,41.90
2017-07-26T17:58:20.761Z,40.60
2017-07-26T18:00:48.274Z,41.00
2017-07-26T18:03:15.841Z,40.40
2017-07-26T18:05:43.361Z,40.20
2017-07-26T18:08:10.927Z,40.40
2017-07-26T18:10:38.472Z,40.30
2017-07-26T18:13:06.039Z,41.70
2017-07-26T18:15:33.581Z,40.80
2017-07-26T18:18:01.142Z,40.30
2017-07-26T18:20:28.667Z,40.10
2017-07-26T18:22:56.214Z,41.00
2017-07-26T18:25:23.760Z,41.40
2017-07-26T18:27:51.312Z,41.20
2017-07-26T18:30:18.851Z,40.50
2017-07-26T18:32:46.405Z,41.60
2017-07-26T18:35:13.922Z,41.20
2017-07-26T18:37:41.463Z,41.50
2017-07-26T18:40:08.997Z,41.50
2017-07-26T18:42:37.427Z,42.20
2017-07-26T18:45:04.942Z,41.80
2017-07-26T18:47:32.491Z,41.70
2017-07-26T18:50:00.026Z,41.80
2017-07-26T18:52:27.616Z,42.30
2017-07-26T18:54:56.464Z,42.30
2017-07-26T18:59:58.671Z,42.30
2017-07-26T19:02:26.218Z,42.40
2017-07-26T19:04:53.743Z,42.60
2017-07-26T19:07:21.305Z,42.40
2017-07-26T19:09:48.805Z,42.40
2017-07-26T19:12:16.331Z,42.50
2017-07-26T19:14:43.833Z,42.90
2017-07-26T19:17:11.378Z,43.10
2017-07-26T19:19:39.667Z,43.30
2017-07-26T19:22:07.235Z,43.30
2017-07-26T19:24:34.748Z,43.40
2017-07-26T19:27:02.309Z,42.00
2017-07-26T19:29:30.415Z,42.20
2017-07-26T19:31:57.983Z,42.50
2017-07-26T19:34:25.508Z,41.90
2017-07-26T19:36:53.043Z,42.20
2017-07-26T19:39:20.634Z,42.20
2017-07-26T19:41:48.162Z,42.00
2017-07-26T19:44:15.747Z,42.80
2017-07-26T19:46:44.029Z,43.50
2017-07-26T19:49:11.570Z,43.20
2017-07-26T19:51:39.878Z,43.80
2017-07-26T19:54:07.439Z,43.80
2017-07-26T19:56:34.943Z,43.80
2017-07-26T19:59:02.555Z,43.40
2017-07-26T20:01:30.868Z,42.90
2017-07-26T20:03:58.406Z,43.00
2017-07-26T20:06:25.934Z,42.50
2017-07-26T20:08:53.466Z,42.90
2017-07-26T20:11:20.978Z,43.60
2017-07-26T20:13:49.400Z,45.40
2017-07-26T20:16:17.314Z,45.30
2017-07-26T20:18:45.653Z,45.40
2017-07-26T20:21:13.177Z,45.40
2017-07-26T20:23:40.730Z,45.30
2017-07-26T20:26:08.275Z,45.20
2017-07-26T20:28:36.583Z,45.40
2017-07-26T20:31:04.122Z,45.40
2017-07-26T20:33:32.455Z,45.40
2017-07-26T20:35:59.974Z,45.40
2017-07-26T20:38:27.514Z,45.70
2017-07-26T20:40:55.057Z,45.70
2017-07-26T20:43:22.606Z,46.20
2017-07-26T20:45:50.134Z,46.00
2017-07-26T20:48:17.700Z,46.60
2017-07-26T20:50:45.248Z,46.70
2017-07-26T20:53:12.813Z,47.00
2017-07-26T20:55:40.321Z,47.20
2017-07-26T20:58:08.630Z,48.70
2017-07-26T21:00:36.210Z,49.30
2017-07-26T21:03:03.746Z,48.70
2017-07-26T21:05:31.342Z,48.90
2017-07-26T21:07:58.870Z,48.90
2017-07-26T21:10:26.397Z,49.10
2017-07-26T21:12:54.676Z,49.00
2017-07-26T21:15:22.994Z,49.40
2017-07-26T21:17:50.573Z,49.40
2017-07-26T21:20:18.090Z,49.60
2017-07-26T21:22:45.632Z,49.50
2017-07-26T21:25:13.164Z,49.50
2017-07-26T21:27:40.724Z,49.50
2017-07-26T21:30:08.276Z,49.10
2017-07-26T21:32:35.850Z,49.20
2017-07-26T21:35:03.410Z,49.20
2017-07-26T21:37:30.937Z,49.20
2017-07-26T21:39:58.478Z,49.50
2017-07-26T21:42:25.985Z,50.00
2017-07-26T21:44:53.530Z,49.90
2017-07-26T21:47:21.087Z,49.70
2017-07-26T21:49:48.669Z,49.60
2017-07-26T21:52:16.209Z,49.50
2017-07-26T21:54:43.748Z,49.40
2017-07-26T21:57:11.258Z,49.40
2017-07-26T21:59:38.792Z,49.70
2017-07-26T22:02:06.326Z,49.40
2017-07-26T22:04:33.909Z,49.10
2017-07-26T22:07:01.481Z,48.90
2017-07-26T22:09:29.047Z,49.10
2017-07-26T22:11:56.673Z,48.90
2017-07-26T22:14:24.250Z,49.00
2017-07-26T22:16:51.797Z,49.20
2017-07-26T22:19:19.376Z,49.00
2017-07-26T22:21:46.918Z,48.60
2017-07-26T22:24:14.487Z,48.00
2017-07-26T22:26:42.041Z,47.50
2017-07-26T22:29:09.645Z,47.00
2017-07-26T22:31:37.204Z,47.00
2017-07-26T22:34:04.751Z,46.60
2017-07-26T22:36:32.257Z,47.00
2017-07-26T22:38:59.786Z,46.90
2017-07-26T22:41:27.324Z,46.50
2017-07-26T22:43:54.849Z,46.50
2017-07-26T22:46:22.390Z,47.30
2017-07-26T22:48:49.961Z,47.60
2017-07-26T22:51:17.465Z,48.20
2017-07-26T22:53:45.036Z,47.70
2017-07-26T22:56:12.542Z,48.00
2017-07-26T22:58:40.100Z,48.20
2017-07-26T23:01:07.651Z,48.30
2017-07-26T23:03:35.202Z,48.30
2017-07-26T23:06:02.730Z,48.20
2017-07-26T23:08:30.281Z,48.10
2017-07-26T23:10:57.912Z,47.80
2017-07-26T23:13:25.427Z,48.40
2017-07-26T23:15:52.978Z,48.40
2017-07-26T23:18:20.499Z,49.50
2017-07-26T23:20:48.026Z,49.60
2017-07-26T23:23:15.550Z,49.70
2017-07-26T23:25:43.081Z,50.50
2017-07-26T23:28:10.613Z,50.10
2017-07-26T23:30:38.194Z,49.90
2017-07-26T23:33:05.703Z,50.40
2017-07-26T23:35:34.014Z,50.10
2017-07-26T23:38:01.547Z,50.90
2017-07-26T23:40:29.088Z,50.50
2017-07-26T23:42:56.613Z,50.20
2017-07-26T23:45:24.177Z,50.10
2017-07-26T23:47:51.682Z,50.20
2017-07-26T23:50:20.027Z,50.50
2017-07-26T23:52:47.554Z,50.40
2017-07-26T23:55:15.090Z,51.10
2017-07-26T23:57:42.606Z,51.60
